sensor_id;sensor_type;location;lat;lon;timestamp;P1;durP1;ratioP1;P2;durP2;ratioP2
21943;SDS011;11136;48.778;9.126;2023-05-08T00:00:17;14.85;;;8.30;;
21943;SDS011;11136;48.778;9.126;2023-05-08T00:02:43;9.25;;;7.15;;
21943;SDS011;11136;48.778;9.126;2023-05-08T00:05:09;12.13;;;8.27;;
21943;SDS011;11136;48.778;9.126;2023-05-08T00:07:35;13.00;;;8.23;;
21943;SDS011;11136;48.778;9.126;2023-05-08T00:10:02;10.10;;;8.13;;
21943;SDS011;11136;48.778;9.126;2023-05-08T00:12:28;13.45;;;9.68;;
21943;SDS011;11136;48.778;9.126;2023-05-08T00:14:54;13.20;;;9.57;;
21943;SDS011;11136;48.778;9.126;2023-05-08T00:17:20;12.35;;;9.60;;
21943;SDS011;11136;48.778;9.126;2023-05-08T00:19:46;13.60;;;10.27;;
21943;SDS011;11136;48.778;9.126;2023-05-08T00:22:12;13.45;;;10.25;;
21943;SDS011;11136;48.778;9.126;2023-05-08T00:24:37;12.30;;;9.48;;
21943;SDS011;11136;48.778;9.126;2023-05-08T00:27:03;16.13;;;10.85;;
21943;SDS011;11136;48.778;9.126;2023-05-08T00:29:29;12.63;;;11.13;;
21943;SDS011;11136;48.778;9.126;2023-05-08T00:31:54;16.55;;;11.77;;
21943;SDS011;11136;48.778;9.126;2023-05-08T00:34:21;13.18;;;10.82;;
21943;SDS011;11136;48.778;9.126;2023-05-08T00:36:46;16.58;;;13.40;;
21943;SDS011;11136;48.778;9.126;2023-05-08T00:39:12;22.10;;;12.77;;
21943;SDS011;11136;48.778;9.126;2023-05-08T00:41:37;17.33;;;12.27;;
21943;SDS011;11136;48.778;9.126;2023-05-08T00:44:03;17.63;;;12.50;;
21943;SDS011;11136;48.778;9.126;2023-05-08T00:46:29;14.63;;;11.93;;
21943;SDS011;11136;48.778;9.126;2023-05-08T00:48:55;15.32;;;12.20;;
21943;SDS011;11136;48.778;9.126;2023-05-08T00:51:20;15.57;;;12.85;;
21943;SDS011;11136;48.778;9.126;2023-05-08T00:53:48;17.92;;;12.90;;
21943;SDS011;11136;48.778;9.126;2023-05-08T00:56:14;14.45;;;11.73;;
21943;SDS011;11136;48.778;9.126;2023-05-08T00:58:41;15.40;;;12.77;;
21943;SDS011;11136;48.778;9.126;2023-05-08T01:01:08;15.05;;;12.23;;
21943;SDS011;11136;48.778;9.126;2023-05-08T01:03:35;17.17;;;13.07;;
21943;SDS011;11136;48.778;9.126;2023-05-08T01:06:02;17.95;;;12.95;;
21943;SDS011;11136;48.778;9.126;2023-05-08T01:08:29;19.00;;;13.57;;
21943;SDS011;11136;48.778;9.126;2023-05-08T01:18:59;23.17;;;15.77;;
21943;SDS011;11136;48.778;9.126;2023-05-08T01:21:55;20.23;;;14.80;;
21943;SDS011;11136;48.778;9.126;2023-05-08T01:24:48;16.58;;;13.65;;
21943;SDS011;11136;48.778;9.126;2023-05-08T01:27:47;20.67;;;14.98;;
21943;SDS011;11136;48.778;9.126;2023-05-08T01:33:20;16.58;;;14.73;;
21943;SDS011;11136;48.778;9.126;2023-05-08T01:35:55;17.88;;;14.20;;
21943;SDS011;11136;48.778;9.126;2023-05-08T01:43:42;18.38;;;12.75;;
21943;SDS011;11136;48.778;9.126;2023-05-08T01:46:18;19.35;;;11.75;;
21943;SDS011;11136;48.778;9.126;2023-05-08T01:51:43;15.65;;;11.65;;
21943;SDS011;11136;48.778;9.126;2023-05-08T01:54:17;14.75;;;10.65;;
21943;SDS011;11136;48.778;9.126;2023-05-08T01:56:46;17.48;;;12.13;;
21943;SDS011;11136;48.778;9.126;2023-05-08T01:59:16;15.43;;;12.52;;
21943;SDS011;11136;48.778;9.126;2023-05-08T02:01:45;15.23;;;11.47;;
21943;SDS011;11136;48.778;9.126;2023-05-08T02:04:13;15.85;;;11.70;;
21943;SDS011;11136;48.778;9.126;2023-05-08T02:06:40;21.67;;;12.77;;
21943;SDS011;11136;48.778;9.126;2023-05-08T02:09:07;14.25;;;12.02;;
21943;SDS011;11136;48.778;9.126;2023-05-08T02:11:36;14.93;;;11.75;;
21943;SDS011;11136;48.778;9.126;2023-05-08T02:14:03;16.98;;;11.57;;
21943;SDS011;11136;48.778;9.126;2023-05-08T02:16:31;18.98;;;12.82;;
21943;SDS011;11136;48.778;9.126;2023-05-08T02:18:59;14.10;;;11.80;;
21943;SDS011;11136;48.778;9.126;2023-05-08T02:21:26;18.60;;;12.98;;
21943;SDS011;11136;48.778;9.126;2023-05-08T02:23:54;18.50;;;13.30;;
21943;SDS011;11136;48.778;9.126;2023-05-08T02:26:21;17.88;;;13.57;;
21943;SDS011;11136;48.778;9.126;2023-05-08T02:28:49;18.17;;;14.32;;
21943;SDS011;11136;48.778;9.126;2023-05-08T02:31:20;17.30;;;13.27;;
21943;SDS011;11136;48.778;9.126;2023-05-08T02:33:46;17.23;;;13.27;;
21943;SDS011;11136;48.778;9.126;2023-05-08T02:36:14;18.15;;;12.80;;
21943;SDS011;11136;48.778;9.126;2023-05-08T02:38:46;16.27;;;12.55;;
21943;SDS011;11136;48.778;9.126;2023-05-08T02:41:15;19.23;;;13.10;;
21943;SDS011;11136;48.778;9.126;2023-05-08T02:43:43;18.05;;;13.27;;
21943;SDS011;11136;48.778;9.126;2023-05-08T02:48:43;16.85;;;12.55;;
21943;SDS011;11136;48.778;9.126;2023-05-08T02:57:51;18.08;;;12.98;;
21943;SDS011;11136;48.778;9.126;2023-05-08T03:00:19;16.45;;;12.32;;
21943;SDS011;11136;48.778;9.126;2023-05-08T03:02:58;16.55;;;12.77;;
21943;SDS011;11136;48.778;9.126;2023-05-08T03:05:37;20.20;;;13.13;;
21943;SDS011;11136;48.778;9.126;2023-05-08T03:08:09;16.73;;;13.25;;
21943;SDS011;11136;48.778;9.126;2023-05-08T03:10:38;16.70;;;11.93;;
21943;SDS011;11136;48.778;9.126;2023-05-08T03:13:07;19.20;;;12.73;;
21943;SDS011;11136;48.778;9.126;2023-05-08T03:18:12;15.85;;;11.57;;
21943;SDS011;11136;48.778;9.126;2023-05-08T03:20:43;15.93;;;12.27;;
21943;SDS011;11136;48.778;9.126;2023-05-08T03:23:12;18.02;;;13.48;;
21943;SDS011;11136;48.778;9.126;2023-05-08T03:25:40;17.23;;;12.32;;
21943;SDS011;11136;48.778;9.126;2023-05-08T03:28:07;22.38;;;15.68;;
21943;SDS011;11136;48.778;9.126;2023-05-08T03:30:35;20.95;;;16.65;;
21943;SDS011;11136;48.778;9.126;2023-05-08T03:33:05;24.10;;;16.67;;
21943;SDS011;11136;48.778;9.126;2023-05-08T03:35:34;21.20;;;15.95;;
21943;SDS011;11136;48.778;9.126;2023-05-08T03:38:04;19.65;;;14.85;;
21943;SDS011;11136;48.778;9.126;2023-05-08T03:40:31;20.73;;;15.60;;
21943;SDS011;11136;48.778;9.126;2023-05-08T03:43:03;24.30;;;17.02;;
21943;SDS011;11136;48.778;9.126;2023-05-08T03:45:33;19.85;;;16.25;;
21943;SDS011;11136;48.778;9.126;2023-05-08T03:48:08;19.10;;;14.73;;
21943;SDS011;11136;48.778;9.126;2023-05-08T03:50:35;21.70;;;15.68;;
21943;SDS011;11136;48.778;9.126;2023-05-08T03:53:02;26.75;;;16.23;;
21943;SDS011;11136;48.778;9.126;2023-05-08T03:55:28;23.35;;;16.70;;
21943;SDS011;11136;48.778;9.126;2023-05-08T03:57:56;22.70;;;16.42;;
21943;SDS011;11136;48.778;9.126;2023-05-08T04:03:15;25.25;;;18.20;;
21943;SDS011;11136;48.778;9.126;2023-05-08T04:05:57;21.95;;;16.33;;
21943;SDS011;11136;48.778;9.126;2023-05-08T04:08:28;22.38;;;15.32;;
21943;SDS011;11136;48.778;9.126;2023-05-08T04:13:37;19.02;;;13.15;;
21943;SDS011;11136;48.778;9.126;2023-05-08T04:16:19;18.92;;;14.15;;
21943;SDS011;11136;48.778;9.126;2023-05-08T04:18:49;15.40;;;12.98;;
21943;SDS011;11136;48.778;9.126;2023-05-08T04:21:19;17.67;;;12.57;;
21943;SDS011;11136;48.778;9.126;2023-05-08T04:23:48;17.98;;;13.25;;
21943;SDS011;11136;48.778;9.126;2023-05-08T04:26:15;18.45;;;12.63;;
21943;SDS011;11136;48.778;9.126;2023-05-08T04:28:43;16.60;;;13.52;;
21943;SDS011;11136;48.778;9.126;2023-05-08T04:31:10;17.55;;;14.07;;
21943;SDS011;11136;48.778;9.126;2023-05-08T04:33:43;19.13;;;14.13;;
21943;SDS011;11136;48.778;9.126;2023-05-08T04:36:12;19.48;;;13.38;;
21943;SDS011;11136;48.778;9.126;2023-05-08T04:38:39;20.42;;;14.98;;
21943;SDS011;11136;48.778;9.126;2023-05-08T04:41:05;19.08;;;14.38;;
21943;SDS011;11136;48.778;9.126;2023-05-08T04:43:31;18.02;;;13.57;;
21943;SDS011;11136;48.778;9.126;2023-05-08T04:45:58;16.48;;;13.38;;
21943;SDS011;11136;48.778;9.126;2023-05-08T04:48:23;20.60;;;14.23;;
21943;SDS011;11136;48.778;9.126;2023-05-08T04:50:49;18.02;;;14.73;;
21943;SDS011;11136;48.778;9.126;2023-05-08T04:53:15;18.13;;;14.88;;
21943;SDS011;11136;48.778;9.126;2023-05-08T04:55:40;19.63;;;15.45;;
21943;SDS011;11136;48.778;9.126;2023-05-08T04:58:06;17.80;;;14.82;;
21943;SDS011;11136;48.778;9.126;2023-05-08T05:00:34;19.77;;;14.77;;
21943;SDS011;11136;48.778;9.126;2023-05-08T05:03:00;16.88;;;13.70;;
21943;SDS011;11136;48.778;9.126;2023-05-08T05:05:25;23.85;;;14.50;;
21943;SDS011;11136;48.778;9.126;2023-05-08T05:07:51;18.05;;;13.40;;
21943;SDS011;11136;48.778;9.126;2023-05-08T05:10:17;21.35;;;13.43;;
21943;SDS011;11136;48.778;9.126;2023-05-08T05:12:44;19.42;;;13.73;;
21943;SDS011;11136;48.778;9.126;2023-05-08T05:15:10;18.58;;;12.77;;
21943;SDS011;11136;48.778;9.126;2023-05-08T05:17:38;16.75;;;13.52;;
21943;SDS011;11136;48.778;9.126;2023-05-08T05:20:05;14.55;;;12.88;;
21943;SDS011;11136;48.778;9.126;2023-05-08T05:22:32;16.70;;;13.82;;
21943;SDS011;11136;48.778;9.126;2023-05-08T05:24:58;16.17;;;13.02;;
21943;SDS011;11136;48.778;9.126;2023-05-08T05:27:24;16.30;;;13.20;;
21943;SDS011;11136;48.778;9.126;2023-05-08T05:29:49;18.05;;;13.60;;
21943;SDS011;11136;48.778;9.126;2023-05-08T05:32:15;17.42;;;13.23;;
21943;SDS011;11136;48.778;9.126;2023-05-08T05:34:41;18.45;;;13.73;;
21943;SDS011;11136;48.778;9.126;2023-05-08T05:37:07;15.98;;;12.60;;
21943;SDS011;11136;48.778;9.126;2023-05-08T05:39:32;18.33;;;13.57;;
21943;SDS011;11136;48.778;9.126;2023-05-08T05:41:59;18.73;;;13.55;;
21943;SDS011;11136;48.778;9.126;2023-05-08T05:44:25;17.73;;;12.50;;
21943;SDS011;11136;48.778;9.126;2023-05-08T05:46:51;19.60;;;14.02;;
21943;SDS011;11136;48.778;9.126;2023-05-08T05:49:16;20.60;;;13.35;;
21943;SDS011;11136;48.778;9.126;2023-05-08T05:51:42;18.85;;;13.35;;
21943;SDS011;11136;48.778;9.126;2023-05-08T05:54:07;16.90;;;13.27;;
21943;SDS011;11136;48.778;9.126;2023-05-08T05:56:33;16.60;;;13.13;;
21943;SDS011;11136;48.778;9.126;2023-05-08T05:58:58;16.30;;;13.30;;
21943;SDS011;11136;48.778;9.126;2023-05-08T06:01:24;15.77;;;13.07;;
21943;SDS011;11136;48.778;9.126;2023-05-08T06:03:52;17.05;;;13.25;;
21943;SDS011;11136;48.778;9.126;2023-05-08T06:06:18;16.27;;;12.75;;
21943;SDS011;11136;48.778;9.126;2023-05-08T06:08:44;15.80;;;12.77;;
21943;SDS011;11136;48.778;9.126;2023-05-08T06:11:10;19.10;;;13.20;;
21943;SDS011;11136;48.778;9.126;2023-05-08T06:13:37;19.30;;;13.00;;
21943;SDS011;11136;48.778;9.126;2023-05-08T06:16:04;19.30;;;13.60;;
21943;SDS011;11136;48.778;9.126;2023-05-08T06:18:30;17.15;;;12.23;;
21943;SDS011;11136;48.778;9.126;2023-05-08T06:20:56;17.70;;;12.75;;
21943;SDS011;11136;48.778;9.126;2023-05-08T06:23:22;16.80;;;12.52;;
21943;SDS011;11136;48.778;9.126;2023-05-08T06:25:48;15.85;;;12.07;;
21943;SDS011;11136;48.778;9.126;2023-05-08T06:28:13;15.35;;;12.40;;
21943;SDS011;11136;48.778;9.126;2023-05-08T06:30:39;17.55;;;12.82;;
21943;SDS011;11136;48.778;9.126;2023-05-08T06:33:05;14.55;;;12.10;;
21943;SDS011;11136;48.778;9.126;2023-05-08T06:35:30;17.52;;;11.68;;
21943;SDS011;11136;48.778;9.126;2023-05-08T06:37:56;13.27;;;11.25;;
21943;SDS011;11136;48.778;9.126;2023-05-08T06:40:21;16.75;;;11.45;;
21943;SDS011;11136;48.778;9.126;2023-05-08T06:42:47;11.57;;;9.38;;
21943;SDS011;11136;48.778;9.126;2023-05-08T06:45:13;13.98;;;10.70;;
21943;SDS011;11136;48.778;9.126;2023-05-08T06:47:38;10.20;;;9.05;;
21943;SDS011;11136;48.778;9.126;2023-05-08T06:50:04;12.07;;;9.52;;
21943;SDS011;11136;48.778;9.126;2023-05-08T06:52:30;11.73;;;9.35;;
21943;SDS011;11136;48.778;9.126;2023-05-08T06:54:56;11.48;;;9.18;;
21943;SDS011;11136;48.778;9.126;2023-05-08T06:57:22;11.15;;;8.80;;
21943;SDS011;11136;48.778;9.126;2023-05-08T06:59:50;12.02;;;8.68;;
21943;SDS011;11136;48.778;9.126;2023-05-08T07:02:17;10.63;;;9.52;;
21943;SDS011;11136;48.778;9.126;2023-05-08T07:04:43;11.48;;;9.40;;
21943;SDS011;11136;48.778;9.126;2023-05-08T07:07:08;11.75;;;9.40;;
21943;SDS011;11136;48.778;9.126;2023-05-08T07:09:35;11.38;;;10.18;;
21943;SDS011;11136;48.778;9.126;2023-05-08T07:12:01;12.65;;;10.50;;
21943;SDS011;11136;48.778;9.126;2023-05-08T07:14:27;11.02;;;9.80;;
21943;SDS011;11136;48.778;9.126;2023-05-08T07:16:52;12.65;;;9.68;;
21943;SDS011;11136;48.778;9.126;2023-05-08T07:19:18;13.20;;;10.63;;
21943;SDS011;11136;48.778;9.126;2023-05-08T07:21:44;13.63;;;10.25;;
21943;SDS011;11136;48.778;9.126;2023-05-08T07:24:10;15.27;;;10.88;;
21943;SDS011;11136;48.778;9.126;2023-05-08T07:26:36;15.07;;;10.82;;
21943;SDS011;11136;48.778;9.126;2023-05-08T07:29:02;13.93;;;11.80;;
21943;SDS011;11136;48.778;9.126;2023-05-08T07:31:27;11.85;;;9.88;;
21943;SDS011;11136;48.778;9.126;2023-05-08T07:33:54;13.98;;;9.98;;
21943;SDS011;11136;48.778;9.126;2023-05-08T07:36:19;13.20;;;11.15;;
21943;SDS011;11136;48.778;9.126;2023-05-08T07:38:46;13.73;;;10.77;;
21943;SDS011;11136;48.778;9.126;2023-05-08T07:41:12;12.35;;;10.90;;
21943;SDS011;11136;48.778;9.126;2023-05-08T07:43:37;13.43;;;10.27;;
21943;SDS011;11136;48.778;9.126;2023-05-08T07:46:04;11.85;;;10.05;;
21943;SDS011;11136;48.778;9.126;2023-05-08T07:48:29;10.77;;;9.68;;
21943;SDS011;11136;48.778;9.126;2023-05-08T07:50:55;10.63;;;8.63;;
21943;SDS011;11136;48.778;9.126;2023-05-08T07:53:20;11.23;;;9.43;;
21943;SDS011;11136;48.778;9.126;2023-05-08T07:55:46;12.18;;;10.65;;
21943;SDS011;11136;48.778;9.126;2023-05-08T07:58:12;10.77;;;9.68;;
21943;SDS011;11136;48.778;9.126;2023-05-08T08:00:38;12.05;;;10.05;;
21943;SDS011;11136;48.778;9.126;2023-05-08T08:03:04;12.32;;;10.00;;
21943;SDS011;11136;48.778;9.126;2023-05-08T08:05:31;10.13;;;9.10;;
21943;SDS011;11136;48.778;9.126;2023-05-08T08:07:56;11.20;;;9.70;;
21943;SDS011;11136;48.778;9.126;2023-05-08T08:10:22;10.55;;;8.82;;
21943;SDS011;11136;48.778;9.126;2023-05-08T08:12:47;10.25;;;9.13;;
21943;SDS011;11136;48.778;9.126;2023-05-08T08:15:13;10.32;;;9.23;;
21943;SDS011;11136;48.778;9.126;2023-05-08T08:17:38;9.40;;;8.35;;
21943;SDS011;11136;48.778;9.126;2023-05-08T08:20:04;10.68;;;9.00;;
21943;SDS011;11136;48.778;9.126;2023-05-08T08:22:30;9.80;;;8.82;;
21943;SDS011;11136;48.778;9.126;2023-05-08T08:24:56;10.60;;;9.02;;
21943;SDS011;11136;48.778;9.126;2023-05-08T08:27:22;11.05;;;8.10;;
21943;SDS011;11136;48.778;9.126;2023-05-08T08:29:48;10.93;;;8.07;;
21943;SDS011;11136;48.778;9.126;2023-05-08T08:32:15;10.10;;;8.05;;
21943;SDS011;11136;48.778;9.126;2023-05-08T08:34:41;11.00;;;8.82;;
21943;SDS011;11136;48.778;9.126;2023-05-08T08:37:06;14.18;;;9.15;;
21943;SDS011;11136;48.778;9.126;2023-05-08T08:39:32;10.13;;;8.75;;
21943;SDS011;11136;48.778;9.126;2023-05-08T08:41:58;12.32;;;9.00;;
21943;SDS011;11136;48.778;9.126;2023-05-08T08:44:24;14.35;;;9.95;;
21943;SDS011;11136;48.778;9.126;2023-05-08T08:46:50;10.95;;;9.07;;
21943;SDS011;11136;48.778;9.126;2023-05-08T08:49:17;13.70;;;10.10;;
21943;SDS011;11136;48.778;9.126;2023-05-08T08:51:55;13.98;;;10.02;;
21943;SDS011;11136;48.778;9.126;2023-05-08T08:54:27;11.32;;;9.20;;
21943;SDS011;11136;48.778;9.126;2023-05-08T08:56:59;12.30;;;10.02;;
21943;SDS011;11136;48.778;9.126;2023-05-08T08:59:26;11.32;;;9.52;;
21943;SDS011;11136;48.778;9.126;2023-05-08T09:01:53;11.40;;;9.43;;
21943;SDS011;11136;48.778;9.126;2023-05-08T09:04:20;14.32;;;10.15;;
21943;SDS011;11136;48.778;9.126;2023-05-08T09:06:47;13.40;;;9.32;;
21943;SDS011;11136;48.778;9.126;2023-05-08T09:09:14;14.27;;;8.68;;
21943;SDS011;11136;48.778;9.126;2023-05-08T09:11:40;10.95;;;7.82;;
21943;SDS011;11136;48.778;9.126;2023-05-08T09:14:07;10.05;;;8.23;;
21943;SDS011;11136;48.778;9.126;2023-05-08T09:16:33;9.98;;;7.88;;
21943;SDS011;11136;48.778;9.126;2023-05-08T09:19:00;12.18;;;7.78;;
21943;SDS011;11136;48.778;9.126;2023-05-08T09:21:26;10.65;;;7.43;;
21943;SDS011;11136;48.778;9.126;2023-05-08T09:23:53;9.85;;;6.75;;
21943;SDS011;11136;48.778;9.126;2023-05-08T09:26:26;9.23;;;6.63;;
21943;SDS011;11136;48.778;9.126;2023-05-08T09:29:35;10.45;;;6.88;;
21943;SDS011;11136;48.778;9.126;2023-05-08T09:31:52;8.85;;;7.15;;
21943;SDS011;11136;48.778;9.126;2023-05-08T09:34:25;10.43;;;7.72;;
21943;SDS011;11136;48.778;9.126;2023-05-08T09:39:29;14.48;;;8.90;;
21943;SDS011;11136;48.778;9.126;2023-05-08T09:42:04;9.45;;;7.30;;
21943;SDS011;11136;48.778;9.126;2023-05-08T09:44:43;12.85;;;7.30;;
21943;SDS011;11136;48.778;9.126;2023-05-08T09:47:16;9.63;;;7.57;;
21943;SDS011;11136;48.778;9.126;2023-05-08T09:49:59;11.75;;;7.18;;
21943;SDS011;11136;48.778;9.126;2023-05-08T09:52:27;12.07;;;7.47;;
21943;SDS011;11136;48.778;9.126;2023-05-08T09:54:59;7.80;;;6.30;;
21943;SDS011;11136;48.778;9.126;2023-05-08T09:57:26;8.38;;;6.32;;
21943;SDS011;11136;48.778;9.126;2023-05-08T10:00:06;7.57;;;5.90;;
21943;SDS011;11136;48.778;9.126;2023-05-08T10:02:34;9.30;;;6.43;;
21943;SDS011;11136;48.778;9.126;2023-05-08T10:05:01;11.82;;;7.25;;
21943;SDS011;11136;48.778;9.126;2023-05-08T10:07:33;8.65;;;6.55;;
21943;SDS011;11136;48.778;9.126;2023-05-08T10:10:03;10.07;;;5.97;;
21943;SDS011;11136;48.778;9.126;2023-05-08T10:12:30;8.38;;;5.82;;
21943;SDS011;11136;48.778;9.126;2023-05-08T10:14:56;8.48;;;6.05;;
21943;SDS011;11136;48.778;9.126;2023-05-08T10:17:33;10.05;;;6.65;;
21943;SDS011;11136;48.778;9.126;2023-05-08T10:20:05;8.60;;;6.53;;
21943;SDS011;11136;48.778;9.126;2023-05-08T10:22:31;8.25;;;6.40;;
21943;SDS011;11136;48.778;9.126;2023-05-08T10:25:00;7.35;;;5.57;;
21943;SDS011;11136;48.778;9.126;2023-05-08T10:28:15;7.03;;;5.65;;
21943;SDS011;11136;48.778;9.126;2023-05-08T10:30:25;5.65;;;4.78;;
21943;SDS011;11136;48.778;9.126;2023-05-08T10:32:52;7.32;;;5.50;;
21943;SDS011;11136;48.778;9.126;2023-05-08T10:35:22;7.20;;;4.75;;
21943;SDS011;11136;48.778;9.126;2023-05-08T10:37:48;6.55;;;5.85;;
21943;SDS011;11136;48.778;9.126;2023-05-08T10:40:14;6.28;;;5.40;;
21943;SDS011;11136;48.778;9.126;2023-05-08T10:42:40;5.70;;;4.90;;
21943;SDS011;11136;48.778;9.126;2023-05-08T10:45:06;6.78;;;5.57;;
21943;SDS011;11136;48.778;9.126;2023-05-08T10:56:07;6.65;;;3.80;;
21943;SDS011;11136;48.778;9.126;2023-05-08T10:58:36;4.47;;;3.30;;
21943;SDS011;11136;48.778;9.126;2023-05-08T11:03:32;9.63;;;5.80;;
21943;SDS011;11136;48.778;9.126;2023-05-08T11:06:06;11.13;;;6.07;;
21943;SDS011;11136;48.778;9.126;2023-05-08T11:08:32;10.45;;;7.13;;
21943;SDS011;11136;48.778;9.126;2023-05-08T11:11:24;9.07;;;6.53;;
21943;SDS011;11136;48.778;9.126;2023-05-08T11:13:53;6.47;;;5.38;;
21943;SDS011;11136;48.778;9.126;2023-05-08T11:19:18;6.47;;;5.43;;
21943;SDS011;11136;48.778;9.126;2023-05-08T11:22:34;6.05;;;5.15;;
21943;SDS011;11136;48.778;9.126;2023-05-08T11:24:38;6.85;;;5.10;;
21943;SDS011;11136;48.778;9.126;2023-05-08T11:27:05;4.85;;;3.88;;
21943;SDS011;11136;48.778;9.126;2023-05-08T11:29:31;4.47;;;4.07;;
21943;SDS011;11136;48.778;9.126;2023-05-08T11:31:58;7.18;;;4.43;;
21943;SDS011;11136;48.778;9.126;2023-05-08T11:37:18;6.53;;;5.13;;
21943;SDS011;11136;48.778;9.126;2023-05-08T11:39:48;6.93;;;5.57;;
21943;SDS011;11136;48.778;9.126;2023-05-08T11:45:35;7.15;;;4.72;;
21943;SDS011;11136;48.778;9.126;2023-05-08T11:47:40;6.70;;;5.47;;
21943;SDS011;11136;48.778;9.126;2023-05-08T11:50:07;6.28;;;4.75;;
21943;SDS011;11136;48.778;9.126;2023-05-08T11:52:34;6.28;;;5.30;;
21943;SDS011;11136;48.778;9.126;2023-05-08T11:55:10;8.18;;;5.28;;
21943;SDS011;11136;48.778;9.126;2023-05-08T11:57:37;5.85;;;5.22;;
21943;SDS011;11136;48.778;9.126;2023-05-08T12:00:07;6.03;;;5.35;;
21943;SDS011;11136;48.778;9.126;2023-05-08T12:02:41;7.43;;;5.88;;
21943;SDS011;11136;48.778;9.126;2023-05-08T12:05:09;6.57;;;5.78;;
21943;SDS011;11136;48.778;9.126;2023-05-08T12:07:45;7.50;;;5.75;;
21943;SDS011;11136;48.778;9.126;2023-05-08T12:10:11;6.85;;;5.68;;
21943;SDS011;11136;48.778;9.126;2023-05-08T12:12:41;6.18;;;5.43;;
21943;SDS011;11136;48.778;9.126;2023-05-08T12:15:11;7.82;;;5.65;;
21943;SDS011;11136;48.778;9.126;2023-05-08T12:17:38;7.90;;;6.20;;
21943;SDS011;11136;48.778;9.126;2023-05-08T12:20:14;9.07;;;6.00;;
21943;SDS011;11136;48.778;9.126;2023-05-08T12:22:49;8.80;;;6.30;;
21943;SDS011;11136;48.778;9.126;2023-05-08T12:25:17;8.45;;;6.35;;
21943;SDS011;11136;48.778;9.126;2023-05-08T12:27:43;7.28;;;6.57;;
21943;SDS011;11136;48.778;9.126;2023-05-08T12:30:10;7.60;;;6.20;;
21943;SDS011;11136;48.778;9.126;2023-05-08T12:32:38;8.65;;;6.43;;
21943;SDS011;11136;48.778;9.126;2023-05-08T12:35:09;8.23;;;6.53;;
21943;SDS011;11136;48.778;9.126;2023-05-08T12:37:36;7.85;;;6.50;;
21943;SDS011;11136;48.778;9.126;2023-05-08T12:40:02;9.05;;;6.15;;
21943;SDS011;11136;48.778;9.126;2023-05-08T12:42:41;8.27;;;6.57;;
21943;SDS011;11136;48.778;9.126;2023-05-08T12:45:10;8.32;;;6.90;;
21943;SDS011;11136;48.778;9.126;2023-05-08T12:47:43;6.75;;;6.05;;
21943;SDS011;11136;48.778;9.126;2023-05-08T12:50:10;10.02;;;6.18;;
21943;SDS011;11136;48.778;9.126;2023-05-08T12:52:38;8.60;;;6.40;;
21943;SDS011;11136;48.778;9.126;2023-05-08T12:55:03;7.15;;;5.68;;
21943;SDS011;11136;48.778;9.126;2023-05-08T12:57:29;5.90;;;5.30;;
21943;SDS011;11136;48.778;9.126;2023-05-08T13:00:01;7.00;;;5.50;;
21943;SDS011;11136;48.778;9.126;2023-05-08T13:02:28;7.28;;;6.25;;
21943;SDS011;11136;48.778;9.126;2023-05-08T13:04:54;12.07;;;6.35;;
21943;SDS011;11136;48.778;9.126;2023-05-08T13:07:20;7.72;;;6.43;;
21943;SDS011;11136;48.778;9.126;2023-05-08T13:09:58;7.32;;;5.80;;
21943;SDS011;11136;48.778;9.126;2023-05-08T13:12:28;7.20;;;5.97;;
21943;SDS011;11136;48.778;9.126;2023-05-08T13:14:54;10.68;;;9.20;;
21943;SDS011;11136;48.778;9.126;2023-05-08T13:17:20;14.48;;;10.20;;
21943;SDS011;11136;48.778;9.126;2023-05-08T13:19:46;20.13;;;10.77;;
21943;SDS011;11136;48.778;9.126;2023-05-08T13:22:11;13.70;;;10.25;;
21943;SDS011;11136;48.778;9.126;2023-05-08T13:24:37;13.98;;;11.00;;
21943;SDS011;11136;48.778;9.126;2023-05-08T13:27:02;16.40;;;11.35;;
21943;SDS011;11136;48.778;9.126;2023-05-08T13:29:28;13.55;;;11.05;;
21943;SDS011;11136;48.778;9.126;2023-05-08T13:31:53;14.50;;;11.85;;
21943;SDS011;11136;48.778;9.126;2023-05-08T13:34:19;14.07;;;11.20;;
21943;SDS011;11136;48.778;9.126;2023-05-08T13:36:45;17.35;;;12.63;;
21943;SDS011;11136;48.778;9.126;2023-05-08T13:39:10;15.48;;;11.73;;
21943;SDS011;11136;48.778;9.126;2023-05-08T13:41:36;13.27;;;9.80;;
21943;SDS011;11136;48.778;9.126;2023-05-08T13:44:01;12.27;;;10.30;;
21943;SDS011;11136;48.778;9.126;2023-05-08T13:46:27;14.10;;;11.38;;
21943;SDS011;11136;48.778;9.126;2023-05-08T13:48:52;12.55;;;9.65;;
21943;SDS011;11136;48.778;9.126;2023-05-08T13:51:18;14.48;;;11.73;;
21943;SDS011;11136;48.778;9.126;2023-05-08T13:53:44;15.27;;;11.90;;
21943;SDS011;11136;48.778;9.126;2023-05-08T13:56:09;12.75;;;10.32;;
21943;SDS011;11136;48.778;9.126;2023-05-08T13:58:35;16.13;;;10.30;;
21943;SDS011;11136;48.778;9.126;2023-05-08T14:01:00;12.50;;;10.98;;
21943;SDS011;11136;48.778;9.126;2023-05-08T14:03:26;18.98;;;12.43;;
21943;SDS011;11136;48.778;9.126;2023-05-08T14:05:51;12.40;;;10.45;;
21943;SDS011;11136;48.778;9.126;2023-05-08T14:08:17;13.95;;;11.25;;
21943;SDS011;11136;48.778;9.126;2023-05-08T14:10:43;16.05;;;11.65;;
21943;SDS011;11136;48.778;9.126;2023-05-08T14:13:08;17.83;;;11.32;;
21943;SDS011;11136;48.778;9.126;2023-05-08T14:15:34;16.25;;;11.40;;
21943;SDS011;11136;48.778;9.126;2023-05-08T14:18:01;17.45;;;12.05;;
21943;SDS011;11136;48.778;9.126;2023-05-08T14:20:26;14.95;;;11.68;;
21943;SDS011;11136;48.778;9.126;2023-05-08T14:22:52;14.10;;;12.02;;
21943;SDS011;11136;48.778;9.126;2023-05-08T14:25:17;14.18;;;11.65;;
21943;SDS011;11136;48.778;9.126;2023-05-08T14:27:44;13.32;;;11.13;;
21943;SDS011;11136;48.778;9.126;2023-05-08T14:30:09;13.88;;;11.38;;
21943;SDS011;11136;48.778;9.126;2023-05-08T14:32:35;16.17;;;12.55;;
21943;SDS011;11136;48.778;9.126;2023-05-08T14:35:01;18.05;;;13.50;;
21943;SDS011;11136;48.778;9.126;2023-05-08T14:37:26;16.40;;;12.85;;
21943;SDS011;11136;48.778;9.126;2023-05-08T14:39:52;17.35;;;13.13;;
21943;SDS011;11136;48.778;9.126;2023-05-08T14:42:20;20.73;;;13.85;;
21943;SDS011;11136;48.778;9.126;2023-05-08T14:44:45;15.32;;;13.07;;
21943;SDS011;11136;48.778;9.126;2023-05-08T14:47:11;18.05;;;13.45;;
21943;SDS011;11136;48.778;9.126;2023-05-08T14:49:37;17.85;;;13.93;;
21943;SDS011;11136;48.778;9.126;2023-05-08T14:52:02;20.45;;;13.85;;
21943;SDS011;11136;48.778;9.126;2023-05-08T14:54:28;18.75;;;15.55;;
21943;SDS011;11136;48.778;9.126;2023-05-08T14:56:54;18.67;;;14.68;;
21943;SDS011;11136;48.778;9.126;2023-05-08T14:59:19;18.02;;;14.25;;
21943;SDS011;11136;48.778;9.126;2023-05-08T15:01:45;21.67;;;16.80;;
21943;SDS011;11136;48.778;9.126;2023-05-08T15:04:10;22.17;;;16.33;;
21943;SDS011;11136;48.778;9.126;2023-05-08T15:06:36;20.90;;;15.93;;
21943;SDS011;11136;48.778;9.126;2023-05-08T15:09:04;19.65;;;16.33;;
21943;SDS011;11136;48.778;9.126;2023-05-08T15:11:30;23.25;;;16.58;;
21943;SDS011;11136;48.778;9.126;2023-05-08T15:13:56;22.10;;;15.88;;
21943;SDS011;11136;48.778;9.126;2023-05-08T15:16:23;23.52;;;18.45;;
21943;SDS011;11136;48.778;9.126;2023-05-08T15:18:48;24.25;;;17.00;;
21943;SDS011;11136;48.778;9.126;2023-05-08T15:21:14;20.67;;;17.55;;
21943;SDS011;11136;48.778;9.126;2023-05-08T15:23:40;20.15;;;16.05;;
21943;SDS011;11136;48.778;9.126;2023-05-08T15:26:05;18.50;;;15.02;;
21943;SDS011;11136;48.778;9.126;2023-05-08T15:28:32;19.45;;;15.73;;
21943;SDS011;11136;48.778;9.126;2023-05-08T15:31:02;18.00;;;14.63;;